createdAt,value
2022-08-11T00:01:35.450Z,2.85
2022-08-11T00:04:41.425Z,3.03
2022-08-11T00:07:50.796Z,2.40
2022-08-11T00:10:58.469Z,1.92
2022-08-11T00:14:04.016Z,1.73
2022-08-11T00:17:11.869Z,1.75
2022-08-11T00:20:18.005Z,3.08
2022-08-11T00:23:26.379Z,3.03
2022-08-11T00:26:32.205Z,2.55
2022-08-11T00:29:38.262Z,4.50
2022-08-11T00:32:59.467Z,3.83
2022-08-11T00:36:06.425Z,7.60
2022-08-11T00:39:14.349Z,3.08
2022-08-11T00:42:22.454Z,3.25
2022-08-11T00:45:30.012Z,8.50
2022-08-11T00:48:40.363Z,9.75
2022-08-11T00:52:04.595Z,3.30
2022-08-11T00:55:26.013Z,5.43
2022-08-11T00:58:50.822Z,7.05
2022-08-11T01:02:12.570Z,8.73
2022-08-11T01:05:26.752Z,9.63
2022-08-11T01:08:44.010Z,11.50
2022-08-11T01:12:04.070Z,11.02
2022-08-11T01:15:24.157Z,10.50
2022-08-11T01:18:48.017Z,12.02
2022-08-11T01:22:21.929Z,11.82
2022-08-11T01:25:57.548Z,11.30
2022-08-11T01:29:24.594Z,12.93
2022-08-11T01:32:53.219Z,21.20
2022-08-11T01:36:13.438Z,15.02
2022-08-11T01:39:45.525Z,27.50
2022-08-11T01:43:26.667Z,10.88
2022-08-11T01:46:35.934Z,18.10
2022-08-11T01:50:09.573Z,14.05
2022-08-11T01:53:16.662Z,14.38
2022-08-11T01:56:35.742Z,15.43
2022-08-11T01:59:49.020Z,7.15
2022-08-11T02:03:01.702Z,13.40
2022-08-11T02:06:35.930Z,11.43
2022-08-11T02:09:54.908Z,12.25
2022-08-11T02:13:00.894Z,11.77
2022-08-11T02:16:13.779Z,10.05
2022-08-11T02:19:48.402Z,11.77
2022-08-11T02:23:10.898Z,9.10
2022-08-11T02:26:19.570Z,10.38
2022-08-11T02:29:27.070Z,12.82
2022-08-11T02:32:47.289Z,8.98
2022-08-11T02:36:00.617Z,10.07
2022-08-11T02:39:11.341Z,15.63
2022-08-11T02:42:32.025Z,15.57
2022-08-11T02:45:47.706Z,17.50
2022-08-11T02:49:14.345Z,18.10
2022-08-11T02:52:27.192Z,16.08
2022-08-11T02:55:48.826Z,12.52
2022-08-11T02:59:14.945Z,16.77
2022-08-11T03:02:24.991Z,18.05
2022-08-11T03:05:44.865Z,17.38
2022-08-11T03:08:57.678Z,17.50
2022-08-11T03:12:17.708Z,21.33
2022-08-11T03:15:38.641Z,18.05
2022-08-11T03:18:48.710Z,13.02
2022-08-11T03:22:02.949Z,19.15
2022-08-11T03:25:15.987Z,28.75
2022-08-11T03:28:44.871Z,17.63
2022-08-11T03:31:54.698Z,14.90
2022-08-11T03:35:02.650Z,19.77
2022-08-11T03:38:12.007Z,17.30
2022-08-11T03:42:01.246Z,15.70
2022-08-11T03:45:05.523Z,19.92
2022-08-11T03:48:21.622Z,17.38
2022-08-11T03:51:44.950Z,18.10
2022-08-11T03:54:58.889Z,20.20
2022-08-11T03:58:18.842Z,15.90
2022-08-11T04:01:38.907Z,19.02
2022-08-11T04:04:59.025Z,18.77
2022-08-11T04:08:14.715Z,22.05
2022-08-11T04:11:40.775Z,15.60
2022-08-11T04:15:03.560Z,23.77
2022-08-11T04:18:29.884Z,15.07
2022-08-11T04:21:49.957Z,9.82
2022-08-11T04:25:24.745Z,11.80
2022-08-11T04:28:50.171Z,15.18
2022-08-11T04:32:04.423Z,5.68
2022-08-11T04:35:20.672Z,16.13
2022-08-11T04:38:41.417Z,20.58
2022-08-11T04:42:10.844Z,11.90
2022-08-11T04:45:42.796Z,9.73
2022-08-11T04:49:27.507Z,14.02
2022-08-11T04:53:18.496Z,9.40
2022-08-11T04:56:39.460Z,12.68
2022-08-11T05:00:17.119Z,11.05
2022-08-11T05:03:37.043Z,12.35
2022-08-11T05:06:57.429Z,13.00
2022-08-11T05:10:10.484Z,12.23
2022-08-11T05:13:38.346Z,14.95
2022-08-11T05:16:58.039Z,19.95
2022-08-11T05:20:18.205Z,7.53
2022-08-11T05:23:54.747Z,6.40
2022-08-11T05:27:14.550Z,6.72
2022-08-11T05:30:34.764Z,6.22
2022-08-11T05:34:01.059Z,8.07
2022-08-11T05:37:25.794Z,6.45
2022-08-11T05:40:50.901Z,8.75
2022-08-11T05:44:20.532Z,9.73
2022-08-11T05:47:42.328Z,9.00
2022-08-11T05:51:10.517Z,14.18
2022-08-11T05:57:45.543Z,11.88
2022-08-11T06:00:56.811Z,8.68
2022-08-11T06:04:18.125Z,12.43
2022-08-11T06:07:30.035Z,10.05
2022-08-11T06:10:55.003Z,9.68
2022-08-11T06:14:00.325Z,8.82
2022-08-11T06:17:07.013Z,19.90
2022-08-11T06:20:15.551Z,16.20
2022-08-11T06:26:28.893Z,10.40
2022-08-11T06:29:37.974Z,13.43
2022-08-11T06:32:58.015Z,11.23
2022-08-11T06:36:07.951Z,19.80
2022-08-11T06:39:24.118Z,14.07
2022-08-11T06:42:37.510Z,17.15
2022-08-11T06:45:49.964Z,8.27
2022-08-11T06:48:56.764Z,14.48
2022-08-11T06:52:04.390Z,34.53
2022-08-11T06:55:57.348Z,42.83
2022-08-11T06:58:51.490Z,6.05
2022-08-11T07:02:00.503Z,13.13
2022-08-11T07:05:08.616Z,19.17
2022-08-11T07:08:40.832Z,14.05
2022-08-11T07:12:18.907Z,10.15
2022-08-11T07:16:12.297Z,11.20
2022-08-11T07:19:20.144Z,12.60
2022-08-11T07:22:38.592Z,8.02
2022-08-11T07:25:57.904Z,15.45
2022-08-11T07:29:04.372Z,6.63
2022-08-11T07:32:16.408Z,7.32
2022-08-11T07:35:23.536Z,9.05
2022-08-11T07:38:43.737Z,12.85
2022-08-11T07:41:54.197Z,7.47
2022-08-11T07:45:12.155Z,6.63
2022-08-11T07:48:32.507Z,5.05
2022-08-11T07:51:50.268Z,6.40
2022-08-11T07:54:55.825Z,4.38
2022-08-11T07:58:19.934Z,6.38
2022-08-11T08:01:39.328Z,10.55
2022-08-11T08:05:01.164Z,5.47
2022-08-11T08:08:20.610Z,7.15
2022-08-11T08:11:38.729Z,17.38
2022-08-11T08:14:56.283Z,8.68
2022-08-11T08:18:20.709Z,3.67
2022-08-11T08:21:32.063Z,6.15
2022-08-11T08:24:37.375Z,3.75
2022-08-11T08:27:43.813Z,5.72
2022-08-11T08:30:52.740Z,5.70
2022-08-11T08:33:58.057Z,10.07
2022-08-11T08:37:15.929Z,5.10
2022-08-11T08:40:31.606Z,5.55
2022-08-11T08:43:48.392Z,3.15
2022-08-11T08:46:57.558Z,8.35
2022-08-11T08:53:11.839Z,8.25
2022-08-11T08:56:17.475Z,2.88
2022-08-11T08:59:47.868Z,2.58
2022-08-11T09:02:55.564Z,7.20
2022-08-11T09:06:01.215Z,4.75
2022-08-11T09:09:09.455Z,3.35
2022-08-11T09:12:15.091Z,3.50
2022-08-11T09:15:21.296Z,4.07
2022-08-11T09:18:30.372Z,3.78
2022-08-11T09:21:49.416Z,4.70
2022-08-11T09:25:11.037Z,5.38
2022-08-11T09:28:16.901Z,2.70
2022-08-11T09:31:23.113Z,2.58
2022-08-11T09:34:29.281Z,2.38
2022-08-11T09:37:55.409Z,7.28
2022-08-11T09:41:06.221Z,5.25
2022-08-11T09:44:24.378Z,7.40
2022-08-11T09:50:34.534Z,5.00
2022-08-11T09:54:04.102Z,4.45
2022-08-11T09:57:23.451Z,2.15
2022-08-11T10:00:32.419Z,2.30
2022-08-11T10:03:40.483Z,9.52
2022-08-11T10:07:00.070Z,4.40
2022-08-11T10:10:05.981Z,11.20
2022-08-11T10:14:32.051Z,11.52
2022-08-11T10:16:41.429Z,4.95
2022-08-11T10:19:48.864Z,8.85
2022-08-11T10:23:23.857Z,5.53
2022-08-11T10:26:45.282Z,4.22
2022-08-11T10:30:06.336Z,3.97
2022-08-11T10:33:36.435Z,5.57
2022-08-11T10:36:47.315Z,6.95
2022-08-11T10:39:52.659Z,3.28
2022-08-11T10:43:05.836Z,4.15
2022-08-11T10:46:30.361Z,6.18
2022-08-11T10:49:36.311Z,3.63
2022-08-11T10:52:55.061Z,6.95
2022-08-11T10:56:13.070Z,5.57
2022-08-11T10:59:18.626Z,4.82
2022-08-11T11:02:27.546Z,12.32
2022-08-11T11:05:34.027Z,3.97
2022-08-11T11:08:58.898Z,9.25
2022-08-11T11:12:22.776Z,3.90
2022-08-11T11:15:41.110Z,6.38
2022-08-11T11:19:00.683Z,5.15
2022-08-11T11:22:26.495Z,4.78
2022-08-11T11:26:06.830Z,2.10
2022-08-11T11:29:25.792Z,3.28
2022-08-11T11:32:40.029Z,5.25
2022-08-11T11:35:53.155Z,8.80
2022-08-11T11:38:58.514Z,4.13
2022-08-11T11:42:05.094Z,7.13
2022-08-11T11:45:22.524Z,4.88
2022-08-11T11:48:29.559Z,4.15
2022-08-11T11:51:37.284Z,4.55
2022-08-11T11:54:42.625Z,5.03
2022-08-11T11:58:02.843Z,2.38
2022-08-11T12:01:22.456Z,3.95
2022-08-11T12:04:28.203Z,3.20
2022-08-11T12:08:05.281Z,7.47
2022-08-11T12:11:35.959Z,4.78
2022-08-11T12:14:41.374Z,3.55
2022-08-11T12:17:51.038Z,3.88
2022-08-11T12:20:57.950Z,4.60
2022-08-11T12:24:18.781Z,4.32
2022-08-11T12:27:25.500Z,5.38
2022-08-11T12:30:31.357Z,4.28
2022-08-11T12:33:39.402Z,4.95
2022-08-11T12:36:46.102Z,6.00
2022-08-11T12:40:15.743Z,5.40
2022-08-11T12:43:46.273Z,4.78
2022-08-11T12:47:02.747Z,4.40
2022-08-11T12:50:20.791Z,2.45
2022-08-11T12:53:29.214Z,5.78
2022-08-11T12:56:53.814Z,4.45
2022-08-11T13:00:11.223Z,5.60
2022-08-11T13:03:29.400Z,7.60
2022-08-11T13:06:34.626Z,2.95
2022-08-11T13:09:39.876Z,7.10
2022-08-11T13:12:50.785Z,6.15
2022-08-11T13:15:56.434Z,6.70
2022-08-11T13:19:02.604Z,3.70
2022-08-11T13:22:08.177Z,2.85
2022-08-11T13:25:15.100Z,15.80
2022-08-11T13:28:23.973Z,6.10
2022-08-11T13:31:29.525Z,6.65
2022-08-11T13:34:41.820Z,3.63
2022-08-11T13:38:19.262Z,9.43
2022-08-11T13:41:26.092Z,7.55
2022-08-11T13:44:34.821Z,2.70
2022-08-11T13:47:40.884Z,9.30
2022-08-11T13:51:02.493Z,4.30
2022-08-11T13:54:09.419Z,5.82
2022-08-11T13:58:08.234Z,2.83
2022-08-11T14:00:52.620Z,5.32
2022-08-11T14:04:31.486Z,7.30
2022-08-11T14:07:25.501Z,5.50
2022-08-11T14:10:33.276Z,8.05
2022-08-11T14:13:41.311Z,8.48
2022-08-11T14:16:52.216Z,6.18
2022-08-11T14:19:57.675Z,5.05
2022-08-11T14:23:03.250Z,3.63
2022-08-11T14:26:21.059Z,4.72
2022-08-11T14:29:28.572Z,7.50
2022-08-11T14:32:52.844Z,4.10
2022-08-11T14:36:00.943Z,5.65
2022-08-11T14:39:09.151Z,6.38
2022-08-11T14:42:28.031Z,4.22
2022-08-11T14:45:57.446Z,3.38
2022-08-11T14:49:07.019Z,7.68
2022-08-11T14:52:15.917Z,10.25
2022-08-11T14:55:34.043Z,7.20
2022-08-11T14:58:39.934Z,3.45
2022-08-11T15:01:57.359Z,8.02
2022-08-11T15:05:06.128Z,6.90
2022-08-11T15:08:12.406Z,10.75
2022-08-11T15:11:31.223Z,5.15
2022-08-11T15:14:48.889Z,6.47
2022-08-11T15:18:02.745Z,9.35
2022-08-11T15:21:23.904Z,4.70
2022-08-11T15:24:30.701Z,7.60
2022-08-11T15:27:49.042Z,8.85
2022-08-11T15:31:08.296Z,6.60
2022-08-11T15:34:28.145Z,6.70
2022-08-11T15:37:36.477Z,4.75
2022-08-11T15:40:55.361Z,14.57
2022-08-11T15:44:13.028Z,6.68
2022-08-11T15:47:18.736Z,8.30
2022-08-11T15:50:24.153Z,7.43
2022-08-11T15:53:35.268Z,3.10
2022-08-11T15:56:43.253Z,7.65
2022-08-11T16:03:18.930Z,3.53
2022-08-11T16:06:24.324Z,6.78
2022-08-11T16:09:46.807Z,9.05
2022-08-11T16:13:10.486Z,6.13
2022-08-11T16:16:19.254Z,6.25
2022-08-11T16:19:25.623Z,10.65
2022-08-11T16:22:34.770Z,6.35
2022-08-11T16:27:03.234Z,4.90
2022-08-11T16:29:09.225Z,7.25
2022-08-11T16:32:22.357Z,7.57
2022-08-11T16:35:40.995Z,9.27
2022-08-11T16:38:46.305Z,9.95
2022-08-11T16:42:06.512Z,7.78
2022-08-11T16:45:24.433Z,8.98
2022-08-11T16:51:41.966Z,10.85
2022-08-11T16:54:47.769Z,6.85
2022-08-11T16:58:07.893Z,17.05
2022-08-11T17:01:14.999Z,13.45
2022-08-11T17:04:40.166Z,13.35
2022-08-11T17:07:58.209Z,10.18
2022-08-11T17:11:20.038Z,8.95
2022-08-11T17:14:35.040Z,11.25
2022-08-11T17:17:42.330Z,7.43
2022-08-11T17:20:47.735Z,8.50
2022-08-11T17:23:52.883Z,12.48
2022-08-11T17:26:59.569Z,9.13
2022-08-11T17:30:08.362Z,16.38
2022-08-11T17:33:27.168Z,13.55
2022-08-11T17:36:32.668Z,11.02
2022-08-11T17:39:38.009Z,12.85
2022-08-11T17:42:57.263Z,12.82
2022-08-11T17:46:17.464Z,14.77
2022-08-11T17:49:23.630Z,9.07
2022-08-11T17:52:41.120Z,15.80
2022-08-11T17:55:59.192Z,14.38
2022-08-11T18:02:39.215Z,13.43
2022-08-11T18:05:46.473Z,17.73
2022-08-11T18:09:04.790Z,15.73
2022-08-11T18:12:23.355Z,21.63
2022-08-11T18:15:40.738Z,21.42
2022-08-11T18:19:15.581Z,14.48
2022-08-11T18:22:35.653Z,16.02
2022-08-11T18:25:54.890Z,16.42
2022-08-11T18:29:12.744Z,12.25
2022-08-11T18:32:49.180Z,12.57
2022-08-11T18:36:12.316Z,16.73
2022-08-11T18:39:30.352Z,10.93
2022-08-11T18:42:48.276Z,11.35
2022-08-11T18:46:07.890Z,14.90
2022-08-11T18:50:01.029Z,8.75
2022-08-11T18:53:09.033Z,8.10
2022-08-11T18:56:26.981Z,14.10
2022-08-11T18:59:45.888Z,11.88
2022-08-11T19:03:03.818Z,9.55
2022-08-11T19:06:38.375Z,8.45
2022-08-11T19:10:02.106Z,10.52
2022-08-11T19:13:23.314Z,7.78
2022-08-11T19:16:41.115Z,6.68
2022-08-11T19:20:00.957Z,9.48
2022-08-11T19:23:20.523Z,8.63
2022-08-11T19:26:40.730Z,6.57
2022-08-11T19:30:07.056Z,10.95
2022-08-11T19:34:00.294Z,13.52
2022-08-11T19:37:08.834Z,11.45
2022-08-11T19:43:46.346Z,9.48
2022-08-11T19:47:05.172Z,11.80
2022-08-11T19:50:24.708Z,10.05
2022-08-11T19:53:43.207Z,8.85
2022-08-11T19:57:01.131Z,14.30
2022-08-11T20:00:23.809Z,15.50
2022-08-11T20:03:41.322Z,9.00
2022-08-11T20:06:58.826Z,13.23
2022-08-11T20:10:18.092Z,9.00
2022-08-11T20:13:37.000Z,10.10
2022-08-11T20:17:02.101Z,11.55
2022-08-11T20:20:21.501Z,9.90
2022-08-11T20:23:39.957Z,10.50
2022-08-11T20:26:57.813Z,14.90
2022-08-11T20:30:16.745Z,15.75
2022-08-11T20:33:37.906Z,8.20
2022-08-11T20:36:56.153Z,13.18
2022-08-11T20:40:14.491Z,10.50
2022-08-11T20:47:13.208Z,9.55
2022-08-11T20:50:33.571Z,17.40
2022-08-11T20:53:53.381Z,15.93
2022-08-11T20:57:12.865Z,8.68
2022-08-11T21:00:39.174Z,12.48
2022-08-11T21:03:59.196Z,12.02
2022-08-11T21:10:59.116Z,12.98
2022-08-11T21:14:18.835Z,15.00
2022-08-11T21:17:38.444Z,13.60
2022-08-11T21:21:17.418Z,17.75
2022-08-11T21:24:39.365Z,17.65
2022-08-11T21:28:05.619Z,22.65
2022-08-11T21:31:24.053Z,15.20
2022-08-11T21:34:41.913Z,14.25
2022-08-11T21:38:00.077Z,17.92
2022-08-11T21:41:20.753Z,15.50
2022-08-11T21:44:38.822Z,17.38
2022-08-11T21:48:01.084Z,15.95
2022-08-11T21:51:19.927Z,12.13
2022-08-11T21:54:39.323Z,14.57
2022-08-11T21:57:59.481Z,18.98
2022-08-11T22:01:17.650Z,18.02
2022-08-11T22:04:35.630Z,25.48
2022-08-11T22:07:54.043Z,15.05
2022-08-11T22:14:31.212Z,16.90
2022-08-11T22:17:48.680Z,14.85
2022-08-11T22:21:06.705Z,15.77
2022-08-11T22:24:30.097Z,16.67
2022-08-11T22:27:48.339Z,15.43
2022-08-11T22:31:08.966Z,16.95
2022-08-11T22:34:26.537Z,17.02
2022-08-11T22:37:44.520Z,12.80
2022-08-11T22:41:02.010Z,23.23
2022-08-11T22:44:19.638Z,17.33
2022-08-11T22:47:40.847Z,31.27
2022-08-11T22:50:59.087Z,38.38
2022-08-11T22:54:17.292Z,29.10
2022-08-11T22:57:35.677Z,36.80
2022-08-11T23:00:53.499Z,29.02
2022-08-11T23:04:15.216Z,27.42
2022-08-11T23:07:49.863Z,25.13
2022-08-11T23:11:09.424Z,21.27
2022-08-11T23:14:27.230Z,24.25
2022-08-11T23:17:47.690Z,21.00
2022-08-11T23:21:07.881Z,19.80
2022-08-11T23:24:26.049Z,21.05
2022-08-11T23:27:43.920Z,24.70
2022-08-11T23:31:01.911Z,32.60
2022-08-11T23:34:41.738Z,30.88
2022-08-11T23:37:59.903Z,24.48
2022-08-11T23:41:18.648Z,18.25
2022-08-11T23:44:36.064Z,21.20
2022-08-11T23:47:54.572Z,27.55
2022-08-11T23:54:36.922Z,20.65
2022-08-11T23:57:55.330Z,18.80
